首页
METAR-TAF:

METAR-TAF

机场 :

奈洛比, 肯尼亚

纬度: 01-19S, 经度: 036-49E, 海拔: 1683米

当前天气观测

该预报发布于27分钟前的10:00 UTC
风速12节,风向南转西南
温度 25°C
湿度 57%
气压 1020 hPa
能见度10公里或以上
多云层高于2700英尺

METAR: HKNW 201000Z 21012KT 9999 BKN027 25/16 Q1020

时间: 13:27 (10:27 UTC)

预报

该预报发布于5小时和27分钟前的05:00 UTC
预报有效从20日的 06点(UTC)到 21日的 06点(UTC)
风速2节,风向多变
能见度10公里或以上
少量云层高于2000英尺
成为
从 20日的 08点(UTC)到 20日的 11点(UTC)
风速10节,风向东南
少量云层高于2500英尺, 积雨云.
散云层高于2600英尺
短暂存在
从 20日的 13点(UTC)到 20日的 17点(UTC)
散云层高于8000英尺
小阵雨
成为
从 20日的 20点(UTC)到 20日的 23点(UTC)
风速2节,风向多变
多云层高于1700英尺
多云层高于8000英尺

TAF: HKNW 200500Z 2006/2106 VRB02KT 9999 FEW020 BECMG 2008/2011 14010KT FEW025CB SCT026 TEMPO 2013/2017 -SHRA SCT080 BECMG 2020/2023 VRB02KT BKN017 BKN080

超过4000个机场的气象观测和天气预报(METAR&TAF报告)。

可查询的气象台以黄色和红色小点在地图上表示。

将鼠标移到小点上方,可查看气象台名称。

然后点击查看天气观测和预报。

如需切换地图:点击带黑十字的绿色按钮放大地图;点击带横线的绿色按钮缩小地图;或者点击绿色箭头查看邻近地区的地图。


METAR-TAF: